sensor_id;sensor_type;location;lat;lon;timestamp;P1;durP1;ratioP1;P2;durP2;ratioP2
5801;SDS011;2927;49.366;8.530;2024-03-23T00:53:47;9.50;;;6.77;;
5801;SDS011;2927;49.366;8.530;2024-03-23T00:56:12;11.60;;;6.93;;
5801;SDS011;2927;49.366;8.530;2024-03-23T00:58:37;14.80;;;6.73;;
5801;SDS011;2927;49.366;8.530;2024-03-23T01:01:03;8.20;;;6.50;;
5801;SDS011;2927;49.366;8.530;2024-03-23T01:03:29;10.53;;;6.33;;
5801;SDS011;2927;49.366;8.530;2024-03-23T01:05:58;7.77;;;6.10;;
5801;SDS011;2927;49.366;8.530;2024-03-23T01:08:27;18.60;;;6.30;;
5801;SDS011;2927;49.366;8.530;2024-03-23T01:10:54;10.73;;;5.00;;
5801;SDS011;2927;49.366;8.530;2024-03-23T01:13:23;11.90;;;6.60;;
5801;SDS011;2927;49.366;8.530;2024-03-23T01:15:49;13.13;;;7.17;;
5801;SDS011;2927;49.366;8.530;2024-03-23T01:18:16;8.00;;;6.00;;
5801;SDS011;2927;49.366;8.530;2024-03-23T01:20:42;8.67;;;6.03;;
5801;SDS011;2927;49.366;8.530;2024-03-23T01:23:08;7.00;;;5.47;;
5801;SDS011;2927;49.366;8.530;2024-03-23T01:25:34;9.13;;;6.20;;
5801;SDS011;2927;49.366;8.530;2024-03-23T01:27:59;11.50;;;6.40;;
5801;SDS011;2927;49.366;8.530;2024-03-23T01:30:25;9.30;;;5.70;;
5801;SDS011;2927;49.366;8.530;2024-03-23T01:32:50;7.50;;;5.00;;
5801;SDS011;2927;49.366;8.530;2024-03-23T01:35:16;11.20;;;6.60;;
5801;SDS011;2927;49.366;8.530;2024-03-23T01:37:41;14.40;;;5.87;;
5801;SDS011;2927;49.366;8.530;2024-03-23T01:40:07;9.10;;;6.03;;
5801;SDS011;2927;49.366;8.530;2024-03-23T01:42:33;8.10;;;5.47;;
5801;SDS011;2927;49.366;8.530;2024-03-23T01:44:58;10.33;;;5.23;;
5801;SDS011;2927;49.366;8.530;2024-03-23T01:47:24;7.77;;;5.13;;
5801;SDS011;2927;49.366;8.530;2024-03-23T01:49:49;6.20;;;5.10;;
5801;SDS011;2927;49.366;8.530;2024-03-23T01:52:16;10.27;;;5.60;;
5801;SDS011;2927;49.366;8.530;2024-03-23T01:54:42;6.60;;;5.53;;
5801;SDS011;2927;49.366;8.530;2024-03-23T01:57:08;8.80;;;5.37;;
5801;SDS011;2927;49.366;8.530;2024-03-23T01:59:34;9.80;;;5.57;;
5801;SDS011;2927;49.366;8.530;2024-03-23T02:02:00;9.60;;;7.00;;
5801;SDS011;2927;49.366;8.530;2024-03-23T02:04:26;16.07;;;6.60;;
5801;SDS011;2927;49.366;8.530;2024-03-23T02:06:51;7.30;;;5.67;;
5801;SDS011;2927;49.366;8.530;2024-03-23T02:09:17;11.10;;;6.27;;
5801;SDS011;2927;49.366;8.530;2024-03-23T02:11:43;13.80;;;6.63;;
5801;SDS011;2927;49.366;8.530;2024-03-23T02:14:08;9.83;;;6.00;;
5801;SDS011;2927;49.366;8.530;2024-03-23T02:16:34;10.07;;;6.47;;
5801;SDS011;2927;49.366;8.530;2024-03-23T02:18:59;11.13;;;7.27;;
5801;SDS011;2927;49.366;8.530;2024-03-23T02:21:25;13.67;;;6.00;;
5801;SDS011;2927;49.366;8.530;2024-03-23T02:23:52;11.13;;;5.30;;
5801;SDS011;2927;49.366;8.530;2024-03-23T02:26:18;9.23;;;6.03;;
5801;SDS011;2927;49.366;8.530;2024-03-23T02:28:43;6.13;;;5.47;;
5801;SDS011;2927;49.366;8.530;2024-03-23T02:31:09;10.63;;;5.53;;
5801;SDS011;2927;49.366;8.530;2024-03-23T02:33:34;10.83;;;6.30;;
5801;SDS011;2927;49.366;8.530;2024-03-23T02:36:03;6.50;;;5.10;;
5801;SDS011;2927;49.366;8.530;2024-03-23T02:38:29;11.90;;;6.50;;
5801;SDS011;2927;49.366;8.530;2024-03-23T02:40:54;8.77;;;5.70;;
5801;SDS011;2927;49.366;8.530;2024-03-23T02:43:20;10.27;;;6.10;;
5801;SDS011;2927;49.366;8.530;2024-03-23T02:45:45;16.83;;;6.17;;
5801;SDS011;2927;49.366;8.530;2024-03-23T02:48:11;11.40;;;5.60;;
5801;SDS011;2927;49.366;8.530;2024-03-23T02:50:36;8.50;;;5.90;;
5801;SDS011;2927;49.366;8.530;2024-03-23T02:53:02;7.30;;;5.60;;
5801;SDS011;2927;49.366;8.530;2024-03-23T02:55:27;9.30;;;6.20;;
5801;SDS011;2927;49.366;8.530;2024-03-23T02:57:53;16.43;;;6.40;;
5801;SDS011;2927;49.366;8.530;2024-03-23T03:00:18;13.10;;;5.40;;
5801;SDS011;2927;49.366;8.530;2024-03-23T03:02:44;8.90;;;6.37;;
5801;SDS011;2927;49.366;8.530;2024-03-23T03:05:09;11.47;;;6.07;;
5801;SDS011;2927;49.366;8.530;2024-03-23T03:07:36;8.87;;;5.73;;
5801;SDS011;2927;49.366;8.530;2024-03-23T03:10:04;18.33;;;6.63;;
5801;SDS011;2927;49.366;8.530;2024-03-23T03:12:31;9.03;;;5.77;;
5801;SDS011;2927;49.366;8.530;2024-03-23T03:14:57;8.97;;;5.93;;
5801;SDS011;2927;49.366;8.530;2024-03-23T03:17:22;7.80;;;5.90;;
5801;SDS011;2927;49.366;8.530;2024-03-23T03:19:48;8.53;;;6.13;;
5801;SDS011;2927;49.366;8.530;2024-03-23T03:22:14;8.47;;;5.90;;
5801;SDS011;2927;49.366;8.530;2024-03-23T03:24:39;8.97;;;5.40;;
5801;SDS011;2927;49.366;8.530;2024-03-23T03:27:05;9.03;;;6.07;;
5801;SDS011;2927;49.366;8.530;2024-03-23T03:29:31;16.03;;;6.00;;
5801;SDS011;2927;49.366;8.530;2024-03-23T03:32:00;9.33;;;6.00;;
5801;SDS011;2927;49.366;8.530;2024-03-23T03:34:27;16.93;;;5.67;;
5801;SDS011;2927;49.366;8.530;2024-03-23T03:36:52;7.43;;;5.50;;
5801;SDS011;2927;49.366;8.530;2024-03-23T03:39:18;11.60;;;6.13;;
5801;SDS011;2927;49.366;8.530;2024-03-23T03:41:43;13.50;;;6.83;;
5801;SDS011;2927;49.366;8.530;2024-03-23T03:44:09;11.70;;;6.90;;
5801;SDS011;2927;49.366;8.530;2024-03-23T03:46:34;10.00;;;6.07;;
5801;SDS011;2927;49.366;8.530;2024-03-23T03:49:00;13.67;;;7.10;;
5801;SDS011;2927;49.366;8.530;2024-03-23T03:51:25;12.23;;;6.40;;
5801;SDS011;2927;49.366;8.530;2024-03-23T03:53:51;9.13;;;5.60;;
5801;SDS011;2927;49.366;8.530;2024-03-23T03:56:16;9.13;;;6.60;;
5801;SDS011;2927;49.366;8.530;2024-03-23T03:58:42;10.07;;;6.63;;
5801;SDS011;2927;49.366;8.530;2024-03-23T04:01:07;20.53;;;6.80;;
5801;SDS011;2927;49.366;8.530;2024-03-23T04:03:33;12.17;;;7.50;;
5801;SDS011;2927;49.366;8.530;2024-03-23T04:05:59;15.07;;;7.33;;
5801;SDS011;2927;49.366;8.530;2024-03-23T04:08:24;13.17;;;7.73;;
5801;SDS011;2927;49.366;8.530;2024-03-23T04:10:50;17.87;;;8.27;;
5801;SDS011;2927;49.366;8.530;2024-03-23T04:13:15;11.57;;;7.37;;
5801;SDS011;2927;49.366;8.530;2024-03-23T04:15:41;16.20;;;8.20;;
5801;SDS011;2927;49.366;8.530;2024-03-23T04:18:07;16.97;;;8.87;;
5801;SDS011;2927;49.366;8.530;2024-03-23T04:20:33;18.27;;;8.57;;
5801;SDS011;2927;49.366;8.530;2024-03-23T04:22:59;21.43;;;10.40;;
5801;SDS011;2927;49.366;8.530;2024-03-23T04:25:24;18.13;;;8.10;;
5801;SDS011;2927;49.366;8.530;2024-03-23T04:27:50;22.40;;;10.10;;
5801;SDS011;2927;49.366;8.530;2024-03-23T04:30:16;18.50;;;9.13;;
5801;SDS011;2927;49.366;8.530;2024-03-23T04:32:42;16.30;;;9.63;;
5801;SDS011;2927;49.366;8.530;2024-03-23T04:35:08;15.77;;;8.60;;
5801;SDS011;2927;49.366;8.530;2024-03-23T04:37:34;20.00;;;8.90;;
5801;SDS011;2927;49.366;8.530;2024-03-23T04:40:00;14.87;;;9.33;;
5801;SDS011;2927;49.366;8.530;2024-03-23T04:42:27;17.40;;;8.37;;
5801;SDS011;2927;49.366;8.530;2024-03-23T04:44:53;15.90;;;8.30;;
5801;SDS011;2927;49.366;8.530;2024-03-23T04:47:19;17.63;;;8.23;;
5801;SDS011;2927;49.366;8.530;2024-03-23T04:49:44;9.90;;;6.30;;
5801;SDS011;2927;49.366;8.530;2024-03-23T04:52:10;11.27;;;6.43;;
5801;SDS011;2927;49.366;8.530;2024-03-23T04:54:35;14.40;;;6.63;;
5801;SDS011;2927;49.366;8.530;2024-03-23T04:57:01;12.47;;;6.10;;
5801;SDS011;2927;49.366;8.530;2024-03-23T04:59:26;9.73;;;5.43;;
5801;SDS011;2927;49.366;8.530;2024-03-23T05:01:52;11.17;;;5.57;;
5801;SDS011;2927;49.366;8.530;2024-03-23T05:04:17;8.23;;;4.20;;
5801;SDS011;2927;49.366;8.530;2024-03-23T05:06:43;6.70;;;4.43;;
5801;SDS011;2927;49.366;8.530;2024-03-23T05:09:08;7.67;;;3.70;;
5801;SDS011;2927;49.366;8.530;2024-03-23T05:11:40;7.00;;;3.50;;
5801;SDS011;2927;49.366;8.530;2024-03-23T05:14:09;4.87;;;3.20;;
5801;SDS011;2927;49.366;8.530;2024-03-23T05:16:35;3.33;;;2.03;;
5801;SDS011;2927;49.366;8.530;2024-03-23T05:19:01;2.00;;;1.80;;
5801;SDS011;2927;49.366;8.530;2024-03-23T05:21:27;2.63;;;1.27;;
5801;SDS011;2927;49.366;8.530;2024-03-23T05:23:53;1.30;;;1.20;;
5801;SDS011;2927;49.366;8.530;2024-03-23T05:26:19;1.47;;;1.10;;
5801;SDS011;2927;49.366;8.530;2024-03-23T05:28:45;1.00;;;1.00;;
5801;SDS011;2927;49.366;8.530;2024-03-23T05:31:10;1.33;;;1.10;;
5801;SDS011;2927;49.366;8.530;2024-03-23T05:33:36;1.30;;;1.20;;
5801;SDS011;2927;49.366;8.530;2024-03-23T05:36:06;1.07;;;1.00;;
5801;SDS011;2927;49.366;8.530;2024-03-23T05:38:36;1.17;;;1.10;;
5801;SDS011;2927;49.366;8.530;2024-03-23T05:41:01;0.90;;;0.90;;
5801;SDS011;2927;49.366;8.530;2024-03-23T05:43:27;1.03;;;0.73;;
5801;SDS011;2927;49.366;8.530;2024-03-23T05:45:57;1.80;;;0.63;;
5801;SDS011;2927;49.366;8.530;2024-03-23T05:48:23;1.53;;;0.90;;
5801;SDS011;2927;49.366;8.530;2024-03-23T05:50:49;0.90;;;0.63;;
5801;SDS011;2927;49.366;8.530;2024-03-23T05:53:16;0.50;;;0.50;;
5801;SDS011;2927;49.366;8.530;2024-03-23T05:55:42;0.87;;;0.73;;
5801;SDS011;2927;49.366;8.530;2024-03-23T05:58:07;0.67;;;0.60;;
5801;SDS011;2927;49.366;8.530;2024-03-23T06:00:33;2.00;;;0.90;;
5801;SDS011;2927;49.366;8.530;2024-03-23T06:02:59;1.00;;;0.80;;
5801;SDS011;2927;49.366;8.530;2024-03-23T06:05:24;0.70;;;0.67;;
5801;SDS011;2927;49.366;8.530;2024-03-23T06:07:50;1.17;;;0.90;;
5801;SDS011;2927;49.366;8.530;2024-03-23T06:10:15;1.23;;;1.07;;
5801;SDS011;2927;49.366;8.530;2024-03-23T06:12:41;4.00;;;0.80;;
5801;SDS011;2927;49.366;8.530;2024-03-23T06:15:07;1.10;;;1.00;;
5801;SDS011;2927;49.366;8.530;2024-03-23T06:17:35;0.80;;;0.50;;
5801;SDS011;2927;49.366;8.530;2024-03-23T06:20:02;0.97;;;0.70;;
5801;SDS011;2927;49.366;8.530;2024-03-23T06:22:28;1.17;;;0.67;;
5801;SDS011;2927;49.366;8.530;2024-03-23T06:24:53;1.17;;;0.40;;
5801;SDS011;2927;49.366;8.530;2024-03-23T06:27:19;0.50;;;0.40;;
5801;SDS011;2927;49.366;8.530;2024-03-23T06:29:44;0.53;;;0.50;;
5801;SDS011;2927;49.366;8.530;2024-03-23T06:32:10;0.40;;;0.40;;
5801;SDS011;2927;49.366;8.530;2024-03-23T06:34:35;0.40;;;0.40;;
5801;SDS011;2927;49.366;8.530;2024-03-23T06:37:01;0.73;;;0.60;;
5801;SDS011;2927;49.366;8.530;2024-03-23T06:39:28;1.37;;;0.53;;
5801;SDS011;2927;49.366;8.530;2024-03-23T06:41:54;0.33;;;0.30;;
5801;SDS011;2927;49.366;8.530;2024-03-23T06:44:20;0.73;;;0.40;;
5801;SDS011;2927;49.366;8.530;2024-03-23T06:46:46;0.40;;;0.40;;
5801;SDS011;2927;49.366;8.530;2024-03-23T06:49:13;1.67;;;0.60;;
5801;SDS011;2927;49.366;8.530;2024-03-23T06:51:39;0.60;;;0.47;;
5801;SDS011;2927;49.366;8.530;2024-03-23T06:54:05;0.93;;;0.70;;
5801;SDS011;2927;49.366;8.530;2024-03-23T06:56:30;0.37;;;0.37;;
5801;SDS011;2927;49.366;8.530;2024-03-23T06:58:56;0.47;;;0.40;;
5801;SDS011;2927;49.366;8.530;2024-03-23T07:01:22;0.50;;;0.40;;
5801;SDS011;2927;49.366;8.530;2024-03-23T07:03:48;0.50;;;0.40;;
5801;SDS011;2927;49.366;8.530;2024-03-23T07:06:13;0.40;;;0.40;;
5801;SDS011;2927;49.366;8.530;2024-03-23T07:08:39;0.40;;;0.30;;
5801;SDS011;2927;49.366;8.530;2024-03-23T07:11:04;0.40;;;0.30;;
5801;SDS011;2927;49.366;8.530;2024-03-23T07:13:30;0.73;;;0.30;;
5801;SDS011;2927;49.366;8.530;2024-03-23T07:15:56;0.50;;;0.30;;
5801;SDS011;2927;49.366;8.530;2024-03-23T07:18:22;0.40;;;0.30;;
5801;SDS011;2927;49.366;8.530;2024-03-23T07:21:06;1.23;;;0.30;;
5801;SDS011;2927;49.366;8.530;2024-03-23T07:23:32;0.40;;;0.30;;
5801;SDS011;2927;49.366;8.530;2024-03-23T07:25:58;0.50;;;0.30;;
5801;SDS011;2927;49.366;8.530;2024-03-23T07:28:28;2.00;;;1.33;;
5801;SDS011;2927;49.366;8.530;2024-03-23T07:31:03;0.30;;;0.30;;
5801;SDS011;2927;49.366;8.530;2024-03-23T07:33:36;0.40;;;0.40;;
5801;SDS011;2927;49.366;8.530;2024-03-23T07:36:03;0.70;;;0.30;;
5801;SDS011;2927;49.366;8.530;2024-03-23T07:38:30;2.40;;;0.60;;
5801;SDS011;2927;49.366;8.530;2024-03-23T07:41:05;0.40;;;0.30;;
5801;SDS011;2927;49.366;8.530;2024-03-23T07:43:32;0.63;;;0.30;;
5801;SDS011;2927;49.366;8.530;2024-03-23T07:45:58;0.60;;;0.37;;
5801;SDS011;2927;49.366;8.530;2024-03-23T07:48:24;2.00;;;0.70;;
5801;SDS011;2927;49.366;8.530;2024-03-23T07:53:48;1.13;;;0.43;;
5801;SDS011;2927;49.366;8.530;2024-03-23T07:56:14;6.97;;;0.60;;
5801;SDS011;2927;49.366;8.530;2024-03-23T07:58:40;1.13;;;0.50;;
5801;SDS011;2927;49.366;8.530;2024-03-23T08:01:12;5.00;;;0.93;;
5801;SDS011;2927;49.366;8.530;2024-03-23T08:03:40;3.20;;;0.70;;
5801;SDS011;2927;49.366;8.530;2024-03-23T08:08:36;1.40;;;0.70;;
5801;SDS011;2927;49.366;8.530;2024-03-23T08:11:02;1.70;;;0.60;;
5801;SDS011;2927;49.366;8.530;2024-03-23T08:13:28;1.13;;;0.70;;
5801;SDS011;2927;49.366;8.530;2024-03-23T08:15:58;0.43;;;0.43;;
5801;SDS011;2927;49.366;8.530;2024-03-23T08:18:24;1.37;;;0.70;;
5801;SDS011;2927;49.366;8.530;2024-03-23T08:21:05;0.50;;;0.50;;
5801;SDS011;2927;49.366;8.530;2024-03-23T08:23:32;1.80;;;0.60;;
5801;SDS011;2927;49.366;8.530;2024-03-23T08:26:02;1.53;;;0.40;;
5801;SDS011;2927;49.366;8.530;2024-03-23T08:28:29;1.07;;;0.50;;
5801;SDS011;2927;49.366;8.530;2024-03-23T08:30:56;1.37;;;0.50;;
5801;SDS011;2927;49.366;8.530;2024-03-23T08:33:22;1.90;;;0.57;;
5801;SDS011;2927;49.366;8.530;2024-03-23T08:36:01;4.00;;;0.80;;
5801;SDS011;2927;49.366;8.530;2024-03-23T08:38:28;1.70;;;0.63;;
5801;SDS011;2927;49.366;8.530;2024-03-23T08:43:23;1.90;;;0.70;;
5801;SDS011;2927;49.366;8.530;2024-03-23T08:45:48;1.97;;;0.77;;
5801;SDS011;2927;49.366;8.530;2024-03-23T08:48:14;1.77;;;0.70;;
5801;SDS011;2927;49.366;8.530;2024-03-23T08:50:39;3.43;;;1.00;;
5801;SDS011;2927;49.366;8.530;2024-03-23T08:53:05;3.80;;;0.90;;
5801;SDS011;2927;49.366;8.530;2024-03-23T08:55:30;2.27;;;0.80;;
5801;SDS011;2927;49.366;8.530;2024-03-23T08:57:56;1.23;;;0.60;;
5801;SDS011;2927;49.366;8.530;2024-03-23T09:00:21;2.70;;;1.20;;
5801;SDS011;2927;49.366;8.530;2024-03-23T09:02:47;1.60;;;1.00;;
5801;SDS011;2927;49.366;8.530;2024-03-23T09:05:13;2.83;;;0.80;;
5801;SDS011;2927;49.366;8.530;2024-03-23T09:07:38;1.93;;;0.80;;
5801;SDS011;2927;49.366;8.530;2024-03-23T09:10:04;1.43;;;1.00;;
5801;SDS011;2927;49.366;8.530;2024-03-23T09:12:30;1.23;;;1.10;;
5801;SDS011;2927;49.366;8.530;2024-03-23T09:14:55;2.63;;;0.60;;
5801;SDS011;2927;49.366;8.530;2024-03-23T09:17:21;4.90;;;1.17;;
5801;SDS011;2927;49.366;8.530;2024-03-23T09:19:46;1.37;;;0.83;;
5801;SDS011;2927;49.366;8.530;2024-03-23T09:22:12;3.50;;;0.90;;
5801;SDS011;2927;49.366;8.530;2024-03-23T09:24:38;0.97;;;0.80;;
5801;SDS011;2927;49.366;8.530;2024-03-23T09:27:04;3.87;;;1.10;;
5801;SDS011;2927;49.366;8.530;2024-03-23T09:29:29;9.20;;;1.87;;
5801;SDS011;2927;49.366;8.530;2024-03-23T09:31:55;7.30;;;1.50;;
5801;SDS011;2927;49.366;8.530;2024-03-23T09:34:20;4.23;;;1.20;;
5801;SDS011;2927;49.366;8.530;2024-03-23T09:36:46;3.40;;;1.47;;
5801;SDS011;2927;49.366;8.530;2024-03-23T09:39:12;6.23;;;1.60;;
5801;SDS011;2927;49.366;8.530;2024-03-23T09:41:38;4.37;;;1.47;;
5801;SDS011;2927;49.366;8.530;2024-03-23T09:44:04;8.93;;;1.53;;
5801;SDS011;2927;49.366;8.530;2024-03-23T09:46:30;5.87;;;1.60;;
5801;SDS011;2927;49.366;8.530;2024-03-23T09:48:59;5.50;;;1.50;;
5801;SDS011;2927;49.366;8.530;2024-03-23T09:51:26;2.70;;;1.50;;
5801;SDS011;2927;49.366;8.530;2024-03-23T09:53:51;5.40;;;1.43;;
5801;SDS011;2927;49.366;8.530;2024-03-23T09:56:18;8.40;;;1.87;;
5801;SDS011;2927;49.366;8.530;2024-03-23T09:58:43;3.73;;;1.40;;
5801;SDS011;2927;49.366;8.530;2024-03-23T10:01:09;2.80;;;1.63;;
5801;SDS011;2927;49.366;8.530;2024-03-23T10:03:44;4.47;;;1.50;;
5801;SDS011;2927;49.366;8.530;2024-03-23T10:06:10;7.57;;;1.30;;
5801;SDS011;2927;49.366;8.530;2024-03-23T10:08:36;11.30;;;1.37;;
5801;SDS011;2927;49.366;8.530;2024-03-23T10:11:14;1.70;;;1.27;;
5801;SDS011;2927;49.366;8.530;2024-03-23T10:13:41;8.03;;;1.70;;
5801;SDS011;2927;49.366;8.530;2024-03-23T10:16:08;3.13;;;2.03;;
5801;SDS011;2927;49.366;8.530;2024-03-23T10:18:38;7.27;;;1.93;;
5801;SDS011;2927;49.366;8.530;2024-03-23T10:23:30;9.07;;;1.37;;
5801;SDS011;2927;49.366;8.530;2024-03-23T10:26:02;1.40;;;1.30;;
5801;SDS011;2927;49.366;8.530;2024-03-23T10:28:50;3.80;;;1.10;;
5801;SDS011;2927;49.366;8.530;2024-03-23T10:31:15;3.10;;;1.90;;
5801;SDS011;2927;49.366;8.530;2024-03-23T10:33:44;10.23;;;1.50;;
5801;SDS011;2927;49.366;8.530;2024-03-23T10:36:11;3.43;;;1.10;;
5801;SDS011;2927;49.366;8.530;2024-03-23T10:38:37;10.87;;;2.17;;
5801;SDS011;2927;49.366;8.530;2024-03-23T10:41:05;6.70;;;1.50;;
5801;SDS011;2927;49.366;8.530;2024-03-23T10:43:31;3.70;;;1.50;;
5801;SDS011;2927;49.366;8.530;2024-03-23T10:45:58;5.33;;;1.50;;
5801;SDS011;2927;49.366;8.530;2024-03-23T10:48:23;2.27;;;1.37;;
5801;SDS011;2927;49.366;8.530;2024-03-23T10:50:49;7.77;;;1.70;;
5801;SDS011;2927;49.366;8.530;2024-03-23T10:53:14;5.60;;;1.60;;
5801;SDS011;2927;49.366;8.530;2024-03-23T10:55:42;7.20;;;1.30;;
5801;SDS011;2927;49.366;8.530;2024-03-23T10:58:09;4.23;;;0.90;;
5801;SDS011;2927;49.366;8.530;2024-03-23T11:00:37;2.23;;;0.90;;
5801;SDS011;2927;49.366;8.530;2024-03-23T11:03:46;4.30;;;1.07;;
5801;SDS011;2927;49.366;8.530;2024-03-23T11:05:55;5.30;;;1.20;;
5801;SDS011;2927;49.366;8.530;2024-03-23T11:08:42;6.03;;;1.10;;
5801;SDS011;2927;49.366;8.530;2024-03-23T11:11:19;3.07;;;1.00;;
5801;SDS011;2927;49.366;8.530;2024-03-23T11:13:53;23.93;;;1.33;;
5801;SDS011;2927;49.366;8.530;2024-03-23T11:16:23;3.47;;;0.80;;
5801;SDS011;2927;49.366;8.530;2024-03-23T11:18:49;4.43;;;1.53;;
5801;SDS011;2927;49.366;8.530;2024-03-23T11:24:19;7.73;;;1.10;;
5801;SDS011;2927;49.366;8.530;2024-03-23T11:26:46;8.17;;;0.90;;
5801;SDS011;2927;49.366;8.530;2024-03-23T11:29:14;8.87;;;0.90;;
5801;SDS011;2927;49.366;8.530;2024-03-23T11:34:16;3.53;;;0.80;;
5801;SDS011;2927;49.366;8.530;2024-03-23T11:36:43;4.13;;;0.90;;
5801;SDS011;2927;49.366;8.530;2024-03-23T11:41:45;3.73;;;1.10;;
5801;SDS011;2927;49.366;8.530;2024-03-23T11:44:18;2.90;;;1.50;;
5801;SDS011;2927;49.366;8.530;2024-03-23T11:46:44;4.67;;;1.20;;
5801;SDS011;2927;49.366;8.530;2024-03-23T11:49:26;3.33;;;0.80;;
5801;SDS011;2927;49.366;8.530;2024-03-23T11:51:53;7.50;;;1.30;;
5801;SDS011;2927;49.366;8.530;2024-03-23T11:54:20;12.67;;;4.47;;
5801;SDS011;2927;49.366;8.530;2024-03-23T11:56:56;4.40;;;2.23;;
5801;SDS011;2927;49.366;8.530;2024-03-23T11:59:32;1.40;;;0.80;;
5801;SDS011;2927;49.366;8.530;2024-03-23T12:02:11;4.33;;;1.33;;
5801;SDS011;2927;49.366;8.530;2024-03-23T12:04:41;7.63;;;1.30;;
5801;SDS011;2927;49.366;8.530;2024-03-23T12:07:11;1.40;;;1.00;;
5801;SDS011;2927;49.366;8.530;2024-03-23T12:09:44;6.73;;;1.03;;
5801;SDS011;2927;49.366;8.530;2024-03-23T12:12:16;3.60;;;0.80;;
5801;SDS011;2927;49.366;8.530;2024-03-23T12:14:43;1.53;;;0.97;;
5801;SDS011;2927;49.366;8.530;2024-03-23T12:17:10;0.93;;;0.70;;
5801;SDS011;2927;49.366;8.530;2024-03-23T12:19:36;4.00;;;0.80;;
5801;SDS011;2927;49.366;8.530;2024-03-23T12:22:03;1.53;;;1.20;;
5801;SDS011;2927;49.366;8.530;2024-03-23T12:24:32;6.73;;;1.07;;
5801;SDS011;2927;49.366;8.530;2024-03-23T12:27:01;2.83;;;1.13;;
5801;SDS011;2927;49.366;8.530;2024-03-23T12:29:28;2.83;;;1.37;;
5801;SDS011;2927;49.366;8.530;2024-03-23T12:31:54;3.40;;;1.63;;
5801;SDS011;2927;49.366;8.530;2024-03-23T12:34:21;3.40;;;0.90;;
5801;SDS011;2927;49.366;8.530;2024-03-23T12:36:46;0.97;;;0.80;;
5801;SDS011;2927;49.366;8.530;2024-03-23T12:39:12;3.50;;;1.27;;
5801;SDS011;2927;49.366;8.530;2024-03-23T12:41:37;3.33;;;0.90;;
5801;SDS011;2927;49.366;8.530;2024-03-23T12:44:03;3.37;;;0.80;;
5801;SDS011;2927;49.366;8.530;2024-03-23T12:46:28;1.20;;;1.00;;
5801;SDS011;2927;49.366;8.530;2024-03-23T12:48:54;2.10;;;0.60;;
5801;SDS011;2927;49.366;8.530;2024-03-23T12:51:19;1.10;;;0.57;;
5801;SDS011;2927;49.366;8.530;2024-03-23T12:53:45;0.80;;;0.50;;
5801;SDS011;2927;49.366;8.530;2024-03-23T12:56:14;1.30;;;0.67;;
5801;SDS011;2927;49.366;8.530;2024-03-23T12:58:39;2.03;;;0.90;;
5801;SDS011;2927;49.366;8.530;2024-03-23T13:01:05;3.10;;;1.03;;
5801;SDS011;2927;49.366;8.530;2024-03-23T13:03:31;2.10;;;0.63;;
5801;SDS011;2927;49.366;8.530;2024-03-23T13:05:57;2.10;;;0.50;;
5801;SDS011;2927;49.366;8.530;2024-03-23T13:08:22;0.70;;;0.43;;
5801;SDS011;2927;49.366;8.530;2024-03-23T13:10:51;1.07;;;0.57;;
5801;SDS011;2927;49.366;8.530;2024-03-23T13:13:17;2.50;;;0.57;;
5801;SDS011;2927;49.366;8.530;2024-03-23T13:15:42;2.00;;;0.60;;
5801;SDS011;2927;49.366;8.530;2024-03-23T13:18:16;0.90;;;0.40;;
5801;SDS011;2927;49.366;8.530;2024-03-23T13:20:41;6.57;;;0.60;;
5801;SDS011;2927;49.366;8.530;2024-03-23T13:23:07;0.40;;;0.40;;
5801;SDS011;2927;49.366;8.530;2024-03-23T13:25:32;3.17;;;2.13;;
5801;SDS011;2927;49.366;8.530;2024-03-23T13:27:58;2.10;;;0.40;;
5801;SDS011;2927;49.366;8.530;2024-03-23T13:30:25;8.87;;;3.40;;
5801;SDS011;2927;49.366;8.530;2024-03-23T13:32:50;1.90;;;0.87;;
5801;SDS011;2927;49.366;8.530;2024-03-23T13:35:16;3.30;;;0.77;;
5801;SDS011;2927;49.366;8.530;2024-03-23T13:37:41;0.40;;;0.30;;
5801;SDS011;2927;49.366;8.530;2024-03-23T13:40:08;0.93;;;0.80;;
5801;SDS011;2927;49.366;8.530;2024-03-23T13:42:34;4.23;;;1.47;;
5801;SDS011;2927;49.366;8.530;2024-03-23T13:44:59;4.17;;;0.83;;
5801;SDS011;2927;49.366;8.530;2024-03-23T13:47:25;1.70;;;1.10;;
5801;SDS011;2927;49.366;8.530;2024-03-23T13:49:50;3.03;;;0.70;;
5801;SDS011;2927;49.366;8.530;2024-03-23T13:52:16;5.53;;;0.80;;
5801;SDS011;2927;49.366;8.530;2024-03-23T13:54:43;0.77;;;0.70;;
5801;SDS011;2927;49.366;8.530;2024-03-23T13:57:11;2.43;;;1.10;;
5801;SDS011;2927;49.366;8.530;2024-03-23T13:59:37;2.10;;;0.50;;
5801;SDS011;2927;49.366;8.530;2024-03-23T14:02:02;2.30;;;0.50;;
5801;SDS011;2927;49.366;8.530;2024-03-23T14:04:28;2.07;;;0.60;;
5801;SDS011;2927;49.366;8.530;2024-03-23T14:06:54;1.73;;;0.70;;
5801;SDS011;2927;49.366;8.530;2024-03-23T14:09:19;2.13;;;0.40;;
5801;SDS011;2927;49.366;8.530;2024-03-23T14:11:50;0.40;;;0.40;;
5801;SDS011;2927;49.366;8.530;2024-03-23T14:14:16;1.90;;;0.40;;
5801;SDS011;2927;49.366;8.530;2024-03-23T14:16:42;3.90;;;0.40;;
5801;SDS011;2927;49.366;8.530;2024-03-23T14:19:08;1.93;;;1.00;;
5801;SDS011;2927;49.366;8.530;2024-03-23T14:21:33;4.67;;;0.60;;
5801;SDS011;2927;49.366;8.530;2024-03-23T14:24:02;1.17;;;0.50;;
5801;SDS011;2927;49.366;8.530;2024-03-23T14:26:29;5.20;;;0.40;;
5801;SDS011;2927;49.366;8.530;2024-03-23T14:28:54;1.30;;;0.50;;
5801;SDS011;2927;49.366;8.530;2024-03-23T14:31:20;2.43;;;0.83;;
5801;SDS011;2927;49.366;8.530;2024-03-23T14:33:45;1.43;;;0.50;;
5801;SDS011;2927;49.366;8.530;2024-03-23T14:36:14;0.40;;;0.30;;
5801;SDS011;2927;49.366;8.530;2024-03-23T14:38:41;0.67;;;0.40;;
5801;SDS011;2927;49.366;8.530;2024-03-23T14:41:07;3.20;;;0.50;;
5801;SDS011;2927;49.366;8.530;2024-03-23T14:43:33;0.60;;;0.57;;
5801;SDS011;2927;49.366;8.530;2024-03-23T14:48:40;0.37;;;0.30;;
5801;SDS011;2927;49.366;8.530;2024-03-23T14:51:07;0.57;;;0.57;;
5801;SDS011;2927;49.366;8.530;2024-03-23T14:53:35;2.87;;;0.53;;
5801;SDS011;2927;49.366;8.530;2024-03-23T14:56:03;2.30;;;0.50;;
5801;SDS011;2927;49.366;8.530;2024-03-23T14:58:29;0.40;;;0.30;;
5801;SDS011;2927;49.366;8.530;2024-03-23T15:03:31;0.40;;;0.30;;
5801;SDS011;2927;49.366;8.530;2024-03-23T15:05:57;0.80;;;0.30;;
5801;SDS011;2927;49.366;8.530;2024-03-23T15:08:25;1.13;;;0.50;;
5801;SDS011;2927;49.366;8.530;2024-03-23T15:10:50;6.37;;;0.57;;
5801;SDS011;2927;49.366;8.530;2024-03-23T15:13:16;0.90;;;0.53;;
5801;SDS011;2927;49.366;8.530;2024-03-23T15:15:42;2.10;;;0.60;;
5801;SDS011;2927;49.366;8.530;2024-03-23T15:18:12;0.80;;;0.53;;
5801;SDS011;2927;49.366;8.530;2024-03-23T15:20:40;1.70;;;0.43;;
5801;SDS011;2927;49.366;8.530;2024-03-23T15:23:31;1.23;;;0.40;;
5801;SDS011;2927;49.366;8.530;2024-03-23T15:25:57;2.67;;;0.40;;
5801;SDS011;2927;49.366;8.530;2024-03-23T15:28:23;2.70;;;0.40;;
5801;SDS011;2927;49.366;8.530;2024-03-23T15:31:06;0.70;;;0.50;;
5801;SDS011;2927;49.366;8.530;2024-03-23T15:33:33;3.77;;;0.70;;
5801;SDS011;2927;49.366;8.530;2024-03-23T15:36:02;0.80;;;0.50;;
5801;SDS011;2927;49.366;8.530;2024-03-23T15:38:28;1.63;;;0.60;;
5801;SDS011;2927;49.366;8.530;2024-03-23T15:40:57;0.60;;;0.40;;
5801;SDS011;2927;49.366;8.530;2024-03-23T15:43:22;4.17;;;1.70;;
5801;SDS011;2927;49.366;8.530;2024-03-23T15:45:55;1.70;;;0.80;;
5801;SDS011;2927;49.366;8.530;2024-03-23T15:48:21;0.80;;;0.50;;
5801;SDS011;2927;49.366;8.530;2024-03-23T15:50:50;0.93;;;0.60;;
5801;SDS011;2927;49.366;8.530;2024-03-23T15:53:17;0.60;;;0.57;;
5801;SDS011;2927;49.366;8.530;2024-03-23T15:55:43;0.40;;;0.40;;
5801;SDS011;2927;49.366;8.530;2024-03-23T15:58:08;0.70;;;0.70;;
5801;SDS011;2927;49.366;8.530;2024-03-23T16:00:34;0.70;;;0.33;;
5801;SDS011;2927;49.366;8.530;2024-03-23T16:02:59;1.17;;;0.43;;
5801;SDS011;2927;49.366;8.530;2024-03-23T16:05:25;0.37;;;0.30;;
5801;SDS011;2927;49.366;8.530;2024-03-23T16:07:52;2.80;;;1.93;;
5801;SDS011;2927;49.366;8.530;2024-03-23T16:10:18;0.63;;;0.50;;
5801;SDS011;2927;49.366;8.530;2024-03-23T16:12:44;1.07;;;0.40;;
5801;SDS011;2927;49.366;8.530;2024-03-23T16:15:09;0.50;;;0.37;;
5801;SDS011;2927;49.366;8.530;2024-03-23T16:17:35;0.30;;;0.30;;
5801;SDS011;2927;49.366;8.530;2024-03-23T16:20:02;0.37;;;0.30;;
5801;SDS011;2927;49.366;8.530;2024-03-23T16:22:28;0.40;;;0.30;;
5801;SDS011;2927;49.366;8.530;2024-03-23T16:24:54;0.50;;;0.33;;
5801;SDS011;2927;49.366;8.530;2024-03-23T16:27:20;1.60;;;0.30;;